Aeroporto :
LOGIN :

Iscrizione | Disclaimer

   EN    FR    IT 

 










Sommario :    VFR   VFR Marginale   IFR   IFR Intensivo   IFR Molto Intensivo
Visibilità : 
Base nubi : 
>= 8 km
>= 3000ft
5 / 8 km
1000 / 3000 ft
1500m / 5 km
500 / 1000 ft
800 / 1500m
200 / 500 ft
< 800m
< 200 ft
Simboli :   Temporali  Nebbia  Neve Forte  Precipitazioni Forti  Vento > 20 kt
SIGMETs :   Varie  Temporali  Ghiacco  Turbolenza  Onda orograficha  Ceneri Vulcaniche







- Altitudine del aeroporto : 510 ft


LJCE - Cerklje

ULTIMO METAR :
  • 240000Z AUTO VRB02KT 1700 SHRA BR FEW009/// OVC042/// 11/11 Q1012

METARs OBSOLETI :
  • 232330Z AUTO 25002KT 2900 BR SCT007/// SCT009/// BKN057/// 11/11 Q1012
  • 232300Z AUTO VRB03KT 2300 -SHRA BR FEW005/// BKN006/// OVC063/// 11/11 Q1012
  • 232230Z AUTO 25002KT 0800 R09/P2000N -SHRA FG BKN005/// BKN062/// BKN071/// 11/11 Q1012
  • 232200Z AUTO 00000KT 0750 R09/1000N FG FEW007/// SCT011/// BKN097/// 11/10 Q1012
  • 232130Z AUTO 00000KT 0650 R09/0600D FG FEW008/// SCT028/// BKN081/// 11/11 Q1012

TAF TAF LJCE
Valido dal 24 a 00 ore il 24 a 09 ore UTC


232300Z 2400/2409 VRB02KT 7000 FEW020 SCT040 BKN055
TEMPO 2400/2409 3500 -RA BR SCT020 BKN030
PROB30 2400/2407 1500 BR BKN003 BKN030
Nessun NOTAM noto per questo aeroporto.



MetMap, La meteo Aeronautica in un colpo d'occhio ! - Copyright ORBIFLY Dicembre 2007 - Disclaimer

ORBIFLY MET'MAP TEAM :

Programmazione e sviluppo : Alexandra Zaïnal
Concezione e sviluppo : Baudouin d'Aumeries
Co-Programmazione e sviluppo : Marc-Olivier Méhu
Supporto tecnico e logistico : Manuel Goepfert
Aiuto per la traduzione : Arnaldo La Scala

Contatto : metmap@orbifly.com




FONTI E CREDITI :

   NOAA